createdAt,value
2018-12-14T00:02:59.819Z,88.87
2018-12-14T00:08:02.740Z,89.07
2018-12-14T00:13:03.796Z,89.57
2018-12-14T00:18:05.784Z,90.26
2018-12-14T00:23:06.518Z,89.24
2018-12-14T00:28:07.579Z,88.09
2018-12-14T00:33:08.435Z,86.40
2018-12-14T00:38:09.423Z,85.05
2018-12-14T00:43:10.237Z,85.35
2018-12-14T00:48:10.957Z,86.96
2018-12-14T00:53:11.866Z,86.87
2018-12-14T00:58:12.708Z,83.03
2018-12-14T01:03:13.653Z,83.28
2018-12-14T01:08:14.539Z,83.14
2018-12-14T01:13:15.352Z,83.54
2018-12-14T01:18:16.102Z,83.96
2018-12-14T01:23:16.865Z,85.33
2018-12-14T01:28:17.917Z,81.73
2018-12-14T01:33:18.868Z,82.15
2018-12-14T01:38:19.717Z,82.22
2018-12-14T01:43:20.582Z,82.38
2018-12-14T01:48:21.343Z,81.95
2018-12-14T01:53:22.175Z,82.34
2018-12-14T01:58:22.945Z,81.96
2018-12-14T02:03:23.896Z,81.86
2018-12-14T02:08:24.915Z,82.33
2018-12-14T02:13:25.687Z,82.40
2018-12-14T02:18:26.655Z,81.61
2018-12-14T02:23:27.440Z,81.60
2018-12-14T02:28:28.275Z,82.35
2018-12-14T02:33:29.200Z,81.50
2018-12-14T02:38:29.968Z,82.29
2018-12-14T02:43:37.892Z,82.54
2018-12-14T02:48:38.718Z,82.56
2018-12-14T02:53:39.574Z,82.94
2018-12-14T02:58:40.439Z,81.98
2018-12-14T03:03:41.294Z,82.67
2018-12-14T03:08:42.029Z,84.26
2018-12-14T03:13:42.869Z,82.90
2018-12-14T03:18:43.873Z,83.52
2018-12-14T03:23:44.819Z,83.89
2018-12-14T03:28:45.701Z,84.08
2018-12-14T03:33:46.528Z,84.28
2018-12-14T03:38:47.368Z,86.52
2018-12-14T03:43:48.211Z,84.52
2018-12-14T03:48:48.988Z,85.52
2018-12-14T03:53:49.877Z,83.89
2018-12-14T03:58:50.696Z,83.02
2018-12-14T04:03:51.857Z,83.54
2018-12-14T04:08:52.719Z,83.18
2018-12-14T04:13:53.466Z,82.13
2018-12-14T04:18:54.525Z,83.87
2018-12-14T04:23:55.459Z,82.58
2018-12-14T04:28:56.315Z,81.70
2018-12-14T04:33:57.289Z,82.80
2018-12-14T04:38:58.138Z,82.65
2018-12-14T04:43:58.994Z,84.01
2018-12-14T04:49:00.056Z,81.95
2018-12-14T04:54:00.999Z,82.04
2018-12-14T04:59:01.840Z,82.45
2018-12-14T05:04:02.887Z,81.42
2018-12-14T05:09:04.185Z,82.34
2018-12-14T05:14:06.188Z,82.72
2018-12-14T05:19:07.128Z,81.74
2018-12-14T05:24:08.094Z,81.31
2018-12-14T05:29:09.020Z,80.55
2018-12-14T05:34:10.076Z,81.09
2018-12-14T05:39:10.959Z,81.95
2018-12-14T05:44:11.715Z,81.62
2018-12-14T05:49:12.562Z,81.90
2018-12-14T05:54:13.506Z,83.29
2018-12-14T05:59:14.254Z,83.17
2018-12-14T06:04:15.327Z,83.57
2018-12-14T06:09:16.173Z,84.06
2018-12-14T06:14:17.151Z,83.20
2018-12-14T06:19:19.111Z,84.45
2018-12-14T06:24:19.973Z,84.33
2018-12-14T06:29:20.922Z,83.70
2018-12-14T06:34:21.802Z,84.83
2018-12-14T06:39:22.867Z,85.57
2018-12-14T06:44:23.628Z,86.29
2018-12-14T06:49:24.419Z,86.56
2018-12-14T06:54:25.306Z,85.68
2018-12-14T06:59:26.147Z,88.12
2018-12-14T07:04:27.093Z,87.25
2018-12-14T07:09:28.081Z,88.11
2018-12-14T07:14:29.002Z,88.61
2018-12-14T07:19:29.874Z,88.12
2018-12-14T07:24:30.887Z,88.51
2018-12-14T07:29:31.763Z,90.33
2018-12-14T07:34:32.632Z,88.79
2018-12-14T07:39:33.576Z,87.90
2018-12-14T07:44:34.364Z,87.51
2018-12-14T07:49:35.182Z,86.48
2018-12-14T07:54:35.944Z,84.04
2018-12-14T07:59:36.815Z,82.57
2018-12-14T08:04:38.055Z,82.38
2018-12-14T08:09:38.826Z,82.24
2018-12-14T08:14:39.600Z,83.25
2018-12-14T08:19:40.392Z,83.59
2018-12-14T08:24:41.287Z,83.12
2018-12-14T08:29:42.350Z,84.94
2018-12-14T08:34:43.217Z,85.10
2018-12-14T08:39:43.956Z,84.27
2018-12-14T08:44:44.848Z,84.70
2018-12-14T08:49:45.783Z,85.36
2018-12-14T08:54:46.848Z,85.22
2018-12-14T08:59:47.762Z,83.07
2018-12-14T09:04:48.710Z,84.07
2018-12-14T09:09:49.590Z,84.69
2018-12-14T09:14:51.336Z,84.27
2018-12-14T09:19:52.516Z,84.79
2018-12-14T09:24:53.564Z,84.23
2018-12-14T09:29:54.538Z,83.73
2018-12-14T09:34:55.592Z,84.04
2018-12-14T09:39:57.282Z,84.96
2018-12-14T09:44:58.208Z,84.47
2018-12-14T09:49:59.225Z,84.23
2018-12-14T09:55:00.031Z,84.72
2018-12-14T10:00:00.839Z,83.92
2018-12-14T10:05:01.631Z,83.54
2018-12-14T10:10:04.684Z,85.25
2018-12-14T10:15:05.792Z,84.30
2018-12-14T10:20:08.975Z,83.47
2018-12-14T10:25:09.849Z,82.88
2018-12-14T10:30:11.834Z,84.59
2018-12-14T10:35:12.900Z,84.34
2018-12-14T10:40:13.751Z,84.41
2018-12-14T10:45:14.615Z,83.72
2018-12-14T10:50:15.339Z,84.11
2018-12-14T10:55:16.116Z,83.34
2018-12-14T11:30:46.237Z,83.79
2018-12-14T11:35:47.199Z,82.40
2018-12-14T11:40:48.155Z,82.70
2018-12-14T11:45:49.112Z,84.20
2018-12-14T11:50:49.980Z,84.08
2018-12-14T11:55:50.958Z,82.45
2018-12-14T12:00:51.835Z,84.04
2018-12-14T12:05:52.769Z,84.82
2018-12-14T12:10:53.856Z,83.74
2018-12-14T12:15:54.730Z,83.36
2018-12-14T12:20:55.718Z,83.40
2018-12-14T12:25:56.593Z,83.08
2018-12-14T12:30:57.529Z,81.62
2018-12-14T12:35:58.349Z,82.49
2018-12-14T12:40:59.131Z,83.65
2018-12-14T12:45:59.990Z,83.90
2018-12-14T12:51:03.345Z,82.54
2018-12-14T12:56:04.171Z,80.71
2018-12-14T13:01:05.114Z,82.24
2018-12-14T13:06:06.068Z,82.58
2018-12-14T13:11:06.951Z,81.91
2018-12-14T13:16:07.962Z,82.92
2018-12-14T13:21:08.949Z,82.13
2018-12-14T13:26:09.740Z,80.27
2018-12-14T13:31:10.730Z,78.60
2018-12-14T13:36:11.699Z,77.92
2018-12-14T13:41:12.685Z,78.64
2018-12-14T13:46:13.601Z,78.26
2018-12-14T13:51:14.943Z,78.42
2018-12-14T13:56:15.929Z,78.90
2018-12-14T14:01:16.904Z,79.32
2018-12-14T14:06:17.744Z,78.92
2018-12-14T14:11:18.590Z,80.62
2018-12-14T14:16:19.422Z,78.39
2018-12-14T14:21:20.398Z,78.54
2018-12-14T14:26:21.280Z,81.49
2018-12-14T14:31:22.296Z,80.83
2018-12-14T14:36:23.459Z,80.24
2018-12-14T14:41:24.427Z,80.34
2018-12-14T14:46:25.394Z,80.37
2018-12-14T14:51:26.563Z,80.90
2018-12-14T14:56:27.432Z,80.97
2018-12-14T15:01:28.534Z,82.11
2018-12-14T15:06:29.662Z,82.41
2018-12-14T15:11:30.463Z,81.94
2018-12-14T15:16:31.416Z,82.37
2018-12-14T15:21:32.298Z,83.14
2018-12-14T15:26:33.079Z,82.97
2018-12-14T15:31:33.887Z,81.20
2018-12-14T15:36:34.864Z,82.67
2018-12-14T15:41:36.663Z,83.23
2018-12-14T15:46:37.679Z,82.33
2018-12-14T15:57:08.260Z,83.53
2018-12-14T16:02:09.287Z,83.44
2018-12-14T16:07:10.163Z,83.58
2018-12-14T16:12:11.133Z,83.87
2018-12-14T16:17:12.089Z,82.14
2018-12-14T16:22:13.156Z,83.44
2018-12-14T16:27:14.069Z,83.04
2018-12-14T16:32:14.975Z,83.64
2018-12-14T16:37:15.938Z,83.31
2018-12-14T16:59:09.253Z,83.08
2018-12-14T17:04:10.605Z,82.75
2018-12-14T17:09:11.958Z,82.87
2018-12-14T17:14:13.320Z,80.72
2018-12-14T17:19:14.436Z,82.02
2018-12-14T17:24:15.569Z,80.98
2018-12-14T17:29:16.721Z,80.45
2018-12-14T17:34:18.035Z,81.19
2018-12-14T17:39:19.257Z,81.48
2018-12-14T17:44:22.548Z,81.99
2018-12-14T17:49:23.800Z,82.18
2018-12-14T17:54:25.156Z,82.29
2018-12-14T17:59:26.258Z,81.91
2018-12-14T18:04:27.621Z,81.44
2018-12-14T18:09:29.974Z,81.71
2018-12-14T18:14:31.290Z,81.48
2018-12-14T18:19:32.677Z,80.52
2018-12-14T18:24:33.916Z,81.81
2018-12-14T18:29:35.262Z,80.96
2018-12-14T18:34:36.454Z,81.22
2018-12-14T18:39:37.557Z,79.78
2018-12-14T18:44:38.684Z,78.98
2018-12-14T18:49:39.914Z,79.30
2018-12-14T18:54:41.040Z,78.74
2018-12-14T18:59:43.138Z,79.01
2018-12-14T19:04:44.622Z,79.24
2018-12-14T19:09:45.827Z,78.92
2018-12-14T19:14:48.042Z,77.84
2018-12-14T19:19:50.364Z,78.85
2018-12-14T19:24:51.618Z,80.16
2018-12-14T19:29:53.854Z,79.08
2018-12-14T19:34:56.511Z,79.34
2018-12-14T19:39:57.695Z,78.10
2018-12-14T19:44:58.823Z,79.04
2018-12-14T19:50:01.268Z,79.94
2018-12-14T19:55:03.899Z,79.90
2018-12-14T20:00:10.268Z,79.70
2018-12-14T20:05:11.628Z,79.26
2018-12-14T20:10:12.845Z,79.86
2018-12-14T20:15:17.911Z,78.61
2018-12-14T20:20:19.307Z,77.37
2018-12-14T20:25:21.073Z,78.53
2018-12-14T20:30:28.835Z,79.02
2018-12-14T20:35:31.581Z,78.29
2018-12-14T20:40:33.334Z,80.85
2018-12-14T20:45:38.458Z,79.35
2018-12-14T20:50:39.725Z,78.86
2018-12-14T20:55:40.840Z,78.79
2018-12-14T21:00:46.882Z,80.83
2018-12-14T21:05:49.235Z,79.62
2018-12-14T21:10:52.374Z,80.22
2018-12-14T21:15:53.600Z,78.62
2018-12-14T21:20:54.827Z,79.93
2018-12-14T21:25:55.930Z,79.86
2018-12-14T21:30:57.210Z,79.54
2018-12-14T21:36:00.714Z,78.95
2018-12-14T21:41:04.115Z,79.41
2018-12-14T21:46:06.781Z,79.84
2018-12-14T21:51:20.972Z,80.87
2018-12-14T21:56:33.594Z,80.08
2018-12-14T22:01:50.820Z,80.83
2018-12-14T22:07:13.469Z,80.18
2018-12-14T22:12:15.908Z,80.36
2018-12-14T22:17:17.191Z,79.76
2018-12-14T22:22:18.417Z,79.30
2018-12-14T22:27:19.980Z,80.04
2018-12-14T22:32:21.243Z,81.32
2018-12-14T22:37:22.555Z,80.02
2018-12-14T22:42:24.847Z,79.90
2018-12-14T22:47:26.097Z,79.13
2018-12-14T22:52:27.511Z,79.28
2018-12-14T22:57:28.758Z,80.46
2018-12-14T23:02:34.388Z,78.77
2018-12-14T23:07:36.357Z,78.73
2018-12-14T23:12:43.604Z,79.23
2018-12-14T23:17:45.028Z,79.47
2018-12-14T23:22:46.205Z,78.73
2018-12-14T23:27:48.440Z,78.25
2018-12-14T23:32:49.773Z,79.85
2018-12-14T23:37:52.112Z,81.19
2018-12-14T23:42:53.272Z,80.67
2018-12-14T23:47:54.525Z,81.35
2018-12-14T23:52:55.869Z,82.20
2018-12-14T23:57:59.214Z,81.73
